createdAt,value
2022-10-05T00:01:02.354Z,100728.00
2022-10-05T00:06:12.067Z,100738.80
2022-10-05T00:11:17.703Z,100733.20
2022-10-05T00:16:21.818Z,100733.60
2022-10-05T00:21:29.176Z,100744.60
2022-10-05T00:26:33.760Z,100730.40
2022-10-05T00:31:37.201Z,100722.00
2022-10-05T00:36:41.095Z,100733.80
2022-10-05T00:42:17.011Z,100725.60
2022-10-05T00:48:05.496Z,100723.40
2022-10-05T00:54:00.931Z,100731.00
2022-10-05T00:59:33.219Z,100718.60
2022-10-05T01:05:12.783Z,100701.80
2022-10-05T01:10:29.669Z,100696.00
2022-10-05T01:15:58.411Z,100697.00
2022-10-05T01:21:28.461Z,100701.80
2022-10-05T01:26:52.767Z,100684.80
2022-10-05T01:32:16.559Z,100673.40
2022-10-05T01:37:54.893Z,100681.80
2022-10-05T01:43:19.703Z,100689.80
2022-10-05T01:48:57.420Z,100696.20
2022-10-05T01:54:37.501Z,100697.80
2022-10-05T02:00:04.253Z,100694.60
2022-10-05T02:05:14.222Z,100680.60
2022-10-05T02:10:38.637Z,100672.80
2022-10-05T02:16:13.548Z,100668.60
2022-10-05T02:21:18.743Z,100666.20
2022-10-05T02:26:25.019Z,100654.00
2022-10-05T02:31:40.902Z,100651.40
2022-10-05T02:36:46.057Z,100657.00
2022-10-05T02:42:10.797Z,100655.40
2022-10-05T02:47:45.152Z,100642.60
2022-10-05T02:53:22.771Z,100654.00
2022-10-05T02:58:39.524Z,100659.40
2022-10-05T03:04:00.704Z,100655.40
2022-10-05T03:09:07.613Z,100652.80
2022-10-05T03:14:59.247Z,100664.00
2022-10-05T03:20:48.739Z,100660.60
2022-10-05T03:25:57.581Z,100658.40
2022-10-05T03:31:38.336Z,100655.20
2022-10-05T03:37:21.311Z,100641.80
2022-10-05T03:42:54.318Z,100648.40
2022-10-05T03:48:08.789Z,100642.20
2022-10-05T03:53:28.586Z,100637.20
2022-10-05T03:58:41.630Z,100626.00
2022-10-05T04:04:00.069Z,100635.60
2022-10-05T04:09:15.194Z,100634.40
2022-10-05T04:14:30.471Z,100628.00
2022-10-05T04:19:49.269Z,100631.40
2022-10-05T04:25:17.134Z,100621.80
2022-10-05T04:30:22.541Z,100628.40
2022-10-05T04:35:47.246Z,100632.80
2022-10-05T04:41:12.230Z,100625.80
2022-10-05T04:47:11.185Z,100620.60
2022-10-05T04:52:32.476Z,100620.80
2022-10-05T04:57:48.182Z,100614.00
2022-10-05T05:03:31.843Z,100618.00
2022-10-05T05:09:28.511Z,100597.20
2022-10-05T05:14:55.366Z,100602.20
2022-10-05T05:20:40.217Z,100591.60
2022-10-05T05:26:08.032Z,100619.20
2022-10-05T05:31:32.933Z,100615.60
2022-10-05T05:36:49.071Z,100618.40
2022-10-05T05:42:41.834Z,100610.80
2022-10-05T05:47:54.414Z,100609.80
2022-10-05T05:53:11.192Z,100619.80
2022-10-05T05:58:17.369Z,100621.80
2022-10-05T06:03:31.021Z,100622.40
2022-10-05T06:08:45.493Z,100639.40
2022-10-05T06:13:50.365Z,100617.20
2022-10-05T06:19:10.753Z,100609.80
2022-10-05T06:24:38.991Z,100593.60
2022-10-05T06:30:06.327Z,100588.60
2022-10-05T06:35:38.103Z,100596.60
2022-10-05T06:40:59.343Z,100586.00
2022-10-05T06:46:23.790Z,100596.40
2022-10-05T06:51:58.297Z,100590.40
2022-10-05T06:57:39.792Z,100594.80
2022-10-05T07:02:54.465Z,100590.40
2022-10-05T07:08:19.713Z,100600.20
2022-10-05T07:14:13.386Z,100588.40
2022-10-05T07:19:28.377Z,100570.20
2022-10-05T07:24:48.382Z,100565.40
2022-10-05T07:30:14.531Z,100565.80
2022-10-05T07:36:06.168Z,100566.20
2022-10-05T07:41:48.495Z,100558.80
2022-10-05T07:47:15.870Z,100566.60
2022-10-05T07:52:34.981Z,100579.80
2022-10-05T07:58:31.711Z,100579.40
2022-10-05T08:03:57.348Z,100574.80
2022-10-05T08:09:23.291Z,100588.80
2022-10-05T08:14:41.449Z,100546.80
2022-10-05T08:20:16.202Z,100563.60
2022-10-05T08:25:51.153Z,100567.20
2022-10-05T08:31:15.574Z,100576.40
2022-10-05T08:36:43.147Z,100572.80
2022-10-05T08:42:08.060Z,100581.00
2022-10-05T08:47:50.486Z,100598.20
2022-10-05T08:53:05.571Z,100599.40
2022-10-05T08:58:57.729Z,100592.60
2022-10-05T09:04:22.341Z,100596.80
2022-10-05T09:09:59.548Z,100585.00
2022-10-05T09:15:26.951Z,100573.00
2022-10-05T09:20:37.604Z,100583.60
2022-10-05T09:26:21.265Z,100568.00
2022-10-05T09:31:51.917Z,100569.40
2022-10-05T09:37:14.275Z,100591.20
2022-10-05T09:42:57.325Z,100589.60
2022-10-05T09:48:45.784Z,100597.00
2022-10-05T09:54:03.844Z,100597.80
2022-10-05T09:59:48.016Z,100601.00
2022-10-05T10:05:07.064Z,100581.60
2022-10-05T10:10:16.244Z,100591.00
2022-10-05T10:15:49.905Z,100595.00
2022-10-05T10:21:24.089Z,100590.80
2022-10-05T10:27:14.128Z,100583.20
2022-10-05T10:33:11.976Z,100590.00
2022-10-05T10:38:40.499Z,100618.00
2022-10-05T10:44:49.435Z,100621.00
2022-10-05T10:50:26.554Z,100611.20
2022-10-05T10:56:17.484Z,100609.40
2022-10-05T11:01:52.779Z,100593.40
2022-10-05T11:07:18.379Z,100563.00
2022-10-05T11:12:52.410Z,100580.00
2022-10-05T11:18:22.967Z,100558.40
2022-10-05T11:24:09.862Z,100563.00
2022-10-05T11:29:45.376Z,100559.60
2022-10-05T11:34:48.674Z,100559.80
2022-10-05T11:40:27.630Z,100552.60
2022-10-05T11:46:06.528Z,100554.80
2022-10-05T11:51:50.579Z,100559.00
2022-10-05T11:57:24.360Z,100564.40
2022-10-05T12:02:53.388Z,100566.00
2022-10-05T12:08:32.014Z,100561.40
2022-10-05T12:13:41.578Z,100556.60
2022-10-05T12:18:51.521Z,100562.80
2022-10-05T12:24:27.123Z,100551.60
2022-10-05T12:30:08.609Z,100559.80
2022-10-05T12:35:29.705Z,100545.00
2022-10-05T12:40:55.679Z,100545.60
2022-10-05T12:46:30.840Z,100553.80
2022-10-05T12:52:19.824Z,100562.00
2022-10-05T12:58:14.127Z,100567.20
2022-10-05T13:04:04.851Z,100568.40
2022-10-05T13:09:21.785Z,100560.00
2022-10-05T13:14:43.432Z,100564.60
2022-10-05T13:19:56.474Z,100557.20
2022-10-05T13:25:31.638Z,100554.20
2022-10-05T13:30:37.238Z,100549.20
2022-10-05T13:36:04.152Z,100548.20
2022-10-05T13:41:40.110Z,100550.80
2022-10-05T13:47:22.610Z,100550.80
2022-10-05T13:52:58.433Z,100551.40
2022-10-05T13:58:28.209Z,100546.80
2022-10-05T14:03:39.243Z,100554.60
2022-10-05T14:08:53.785Z,100560.00
2022-10-05T14:14:25.305Z,100555.80
2022-10-05T14:19:32.408Z,100550.00
2022-10-05T14:24:44.256Z,100539.80
2022-10-05T14:30:10.253Z,100528.60
2022-10-05T14:35:22.378Z,100518.80
2022-10-05T14:40:27.839Z,100534.20
2022-10-05T14:45:33.562Z,100543.00
2022-10-05T14:50:55.227Z,100540.40
2022-10-05T14:56:20.687Z,100536.60
2022-10-05T15:01:31.792Z,100534.20
2022-10-05T15:06:42.841Z,100527.00
2022-10-05T15:11:54.778Z,100524.40
2022-10-05T15:17:41.814Z,100527.80
2022-10-05T15:22:53.830Z,100520.00
2022-10-05T15:28:32.569Z,100521.80
2022-10-05T15:33:50.221Z,100527.00
2022-10-05T15:39:29.883Z,100521.20
2022-10-05T15:45:11.059Z,100511.40
2022-10-05T15:50:37.648Z,100509.00
2022-10-05T15:56:31.748Z,100512.00
2022-10-05T16:01:35.088Z,100503.80
2022-10-05T16:07:09.091Z,100500.80
2022-10-05T16:12:53.255Z,100495.80
2022-10-05T16:18:37.946Z,100492.00
2022-10-05T16:24:16.164Z,100488.20
2022-10-05T16:29:33.203Z,100488.40
2022-10-05T16:35:26.226Z,100493.40
2022-10-05T16:41:23.555Z,100495.00
2022-10-05T16:46:52.462Z,100496.60
2022-10-05T16:52:07.886Z,100494.00
2022-10-05T16:57:40.461Z,100494.20
2022-10-05T17:02:56.098Z,100498.40
2022-10-05T17:08:29.582Z,100497.20
2022-10-05T17:14:07.896Z,100492.40
2022-10-05T17:19:53.519Z,100494.20
2022-10-05T17:25:34.538Z,100497.00
2022-10-05T17:30:59.081Z,100487.80
2022-10-05T17:36:08.784Z,100497.60
2022-10-05T17:41:23.769Z,100487.80
2022-10-05T17:46:48.791Z,100484.40
2022-10-05T17:52:10.527Z,100474.80
2022-10-05T17:57:25.517Z,100478.80
2022-10-05T18:02:41.022Z,100469.60
2022-10-05T18:08:16.683Z,100460.60
2022-10-05T18:13:44.158Z,100463.60
2022-10-05T18:18:57.573Z,100456.60
2022-10-05T18:24:14.437Z,100458.40
2022-10-05T18:30:05.556Z,100453.60
2022-10-05T18:35:53.899Z,100453.20
2022-10-05T18:41:24.371Z,100442.00
2022-10-05T18:46:47.287Z,100443.80
2022-10-05T18:52:24.673Z,100438.00
2022-10-05T18:57:58.594Z,100436.80
2022-10-05T19:03:34.572Z,100436.20
2022-10-05T19:09:00.107Z,100429.40
2022-10-05T19:14:45.605Z,100430.80
2022-10-05T19:20:29.264Z,100424.00
2022-10-05T19:25:43.514Z,100425.80
2022-10-05T19:30:55.775Z,100422.80
2022-10-05T19:36:25.385Z,100429.40
2022-10-05T19:41:45.074Z,100410.60
2022-10-05T19:47:01.067Z,100417.60
2022-10-05T19:52:31.399Z,100420.00
2022-10-05T19:57:35.355Z,100418.60
2022-10-05T20:02:42.193Z,100421.80
2022-10-05T20:07:45.760Z,100428.40
2022-10-05T20:13:04.785Z,100434.40
2022-10-05T20:19:06.321Z,100431.80
2022-10-05T20:24:12.766Z,100437.00
2022-10-05T20:29:16.228Z,100439.80
2022-10-05T20:34:19.741Z,100441.60
2022-10-05T20:39:23.561Z,100448.80
2022-10-05T20:44:27.699Z,100437.40
2022-10-05T20:49:32.502Z,100444.40
2022-10-05T20:54:37.878Z,100435.40
2022-10-05T20:59:41.214Z,100433.40
2022-10-05T21:04:47.798Z,100429.00
2022-10-05T21:09:51.829Z,100425.40
2022-10-05T21:14:55.139Z,100430.20
2022-10-05T21:19:58.801Z,100431.60
2022-10-05T21:25:02.696Z,100429.00
2022-10-05T21:30:07.289Z,100433.20
2022-10-05T21:35:10.616Z,100429.20
2022-10-05T21:40:14.052Z,100424.40
2022-10-05T21:45:17.471Z,100418.80
2022-10-05T21:50:20.885Z,100418.80
2022-10-05T21:55:24.292Z,100419.00
2022-10-05T22:00:28.095Z,100416.60
2022-10-05T22:05:32.509Z,100415.80
2022-10-05T22:10:35.910Z,100417.40
2022-10-05T22:15:40.559Z,100415.00
2022-10-05T22:20:45.704Z,100412.20
2022-10-05T22:25:49.588Z,100413.60
2022-10-05T22:30:53.119Z,100418.60
2022-10-05T22:35:58.976Z,100423.20
2022-10-05T22:41:02.291Z,100417.60
2022-10-05T22:46:13.876Z,100414.80
2022-10-05T22:51:17.409Z,100416.20
2022-10-05T22:56:20.824Z,100425.20
2022-10-05T23:01:24.229Z,100422.80
2022-10-05T23:06:27.754Z,100422.80
2022-10-05T23:11:31.373Z,100424.80
2022-10-05T23:16:34.709Z,100423.20
2022-10-05T23:21:38.375Z,100421.80
2022-10-05T23:26:41.686Z,100420.20
2022-10-05T23:31:45.030Z,100422.80
2022-10-05T23:36:48.342Z,100417.60
2022-10-05T23:41:51.970Z,100418.20
2022-10-05T23:46:55.271Z,100416.40
2022-10-05T23:51:58.900Z,100418.60
2022-10-05T23:57:02.300Z,100412.80
